Latest Weather Observations for Clare

IDS60801

Issued at 11:05 pm CST Sunday 20 April 2014 (issued every 30 minutes, with the page automatically refreshed every 10 minutes)

About weather observations | Map of weather stations | Latest weather observations for SA | Other Formats
Station Details ID: 021131 Name: CLARE HIGH SCHOOL Lat: -33.82 Lon: 138.59 Height: 395.0 m
Data from the previous 72 hours. | See also: Recent months at Clare
Date/Time
CST
Temp
°C
App
Temp
°C
Dew
Point
Rel
Hum
%
Delta-T
°C
Wind Press
QNH
hPa
Press
MSL
hPa
Rain
since 9 am
mm
Dir
 
Spd
km/h
Gust
km/h
Spd
kts
Gust
kts
20/11:00pm 13.5 12.4 8.6 72 2.5 NE 4 9 2 5 1018.5 - 0.0
20/10:30pm 14.2 12.8 8.8 70 2.8 E 6 11 3 6 1018.7 - 0.0
20/10:00pm 14.8 13.3 9.2 69 2.9 E 7 13 4 7 1019.0 - 0.0
20/09:30pm 15.0 13.5 9.1 68 3.1 E 7 13 4 7 1018.9 - 0.0
20/09:00pm 14.4 13.1 9.2 71 2.7 ESE 6 11 3 6 1019.1 1018.5 0.0
20/08:30pm 13.7 12.2 9.2 74 2.3 E 7 9 4 5 1019.0 - 0.0
20/08:00pm 13.3 13.3 9.9 80 1.8 CALM 0 4 0 2 1019.1 - 0.0
20/07:30pm 13.3 13.3 9.7 79 1.9 S 0 0 0 0 1018.9 - 0.0
20/07:00pm 14.2 14.3 10.0 76 2.2 CALM 0 0 0 0 1018.7 - 0.0
20/06:30pm 15.4 15.5 10.0 70 2.9 CALM 0 0 0 0 1018.3 - 0.0
20/06:00pm 16.6 16.7 10.0 65 3.5 CALM 0 0 0 0 1018.1 1017.4 0.0
20/05:30pm 18.8 18.9 10.1 57 4.7 CALM 0 0 0 0 1018.0 - 0.0
20/05:00pm 19.8 18.5 9.1 50 5.8 SSW 6 7 3 4 1017.8 - 0.0
20/04:30pm 20.8 19.0 9.4 48 6.2 SSW 9 17 5 9 1018.0 - 0.0
20/04:00pm 20.9 19.5 8.9 46 6.5 WSW 6 9 3 5 1017.6 - 0.0
20/03:30pm 21.3 20.0 9.9 48 6.3 S 7 15 4 8 1017.7 - 0.0
20/03:00pm 20.9 19.2 8.5 45 6.6 WSW 7 19 4 10 1017.7 1017.1 0.0
20/02:30pm 21.2 19.6 8.8 45 6.7 S 7 13 4 7 1017.7 - 0.0
20/02:00pm 21.3 19.4 10.5 50 6.0 SW 11 24 6 13 1017.7 - 0.0
20/01:30pm 21.2 19.6 10.1 49 6.1 WSW 9 17 5 9 1017.7 - 0.0
20/01:00pm 20.4 18.2 9.3 49 6.0 SSW 11 19 6 10 1018.0 - 0.0
20/12:30pm 19.7 17.5 9.3 51 5.6 WSW 11 20 6 11 1018.4 - 0.0
20/12:00pm 19.3 17.7 8.9 51 5.5 SSW 7 13 4 7 1018.8 1018.2 0.0
20/11:30am 18.6 17.3 9.9 57 4.7 W 7 13 4 7 1019.1 - 0.0
20/11:00am 17.8 16.0 7.8 52 5.2 W 7 13 4 7 1019.4 - 0.0
20/10:30am 17.4 16.1 9.3 59 4.3 NNW 6 11 3 6 1019.5 - 0.0
20/10:00am 16.9 15.8 8.3 57 4.5 NW 4 7 2 4 1019.5 - 0.0
20/09:30am 16.0 15.6 8.2 60 4.0 CALM 0 7 0 4 1019.7 - 0.0
20/09:00am 15.3 14.9 8.1 62 3.7 CALM 0 0 0 0 1019.8 1019.2 0.0
20/08:30am 13.7 13.5 9.0 73 2.4 CALM 0 0 0 0 1019.6 - 0.0
20/08:00am 10.4 10.0 8.2 86 1.1 CALM 0 0 0 0 1019.4 - 0.0
20/07:30am 8.3 7.7 7.4 94 0.4 CALM 0 0 0 0 1019.1 - 0.0
20/07:00am 6.4 5.4 5.8 96 0.3 CALM 0 0 0 0 1018.8 - 0.0
20/06:30am 6.7 5.8 6.0 95 0.3 CALM 0 0 0 0 1018.6 - 0.0
20/06:00am 7.3 6.4 6.2 93 0.5 ESE 0 0 0 0 1018.3 1017.6 0.0
20/05:30am 7.9 7.1 6.7 92 0.6 CALM 0 0 0 0 1018.2 - 0.0
20/05:00am 9.0 8.5 7.8 92 0.6 CALM 0 0 0 0 1018.0 - 0.0
20/04:30am 10.1 9.8 8.7 91 0.7 CALM 0 0 0 0 1018.0 - 0.0
20/04:00am 9.9 9.6 8.7 92 0.6 CALM 0 0 0 0 1017.8 - 0.0
20/03:30am 9.7 9.4 8.5 92 0.6 CALM 0 0 0 0 1017.6 - 0.0
20/03:00am 9.8 9.4 8.2 90 0.8 CALM 0 0 0 0 1017.6 1017.0 0.0
20/02:30am 10.4 10.1 8.5 88 1.0 CALM 0 0 0 0 1017.6 - 0.0
20/02:00am 10.3 9.9 8.2 87 1.0 CALM 0 0 0 0 1017.7 - 0.0
20/01:30am 10.8 10.1 8.6 86 1.1 ESE 2 6 1 3 1017.8 - 0.0
20/01:00am 10.6 10.1 8.0 84 1.3 CALM 0 0 0 0 1018.2 - 0.0
20/12:30am 11.0 10.8 8.9 87 1.1 CALM 0 0 0 0 1018.4 - 0.0
20/12:00am 11.0 10.7 8.6 85 1.2 CALM 0 0 0 0 1018.4 1017.7 0.0
 
Date/Time
CST
Temp
°C
App
Temp
°C
Dew
Point
Rel
Hum
%
Delta-T
°C
Wind Press
QNH
hPa
Press
MSL
hPa
Rain
since 9 am
mm
Dir
 
Spd
km/h
Gust
km/h
Spd
kts
Gust
kts
19/11:30pm 11.3 10.7 7.4 77 1.9 CALM 0 0 0 0 1018.3 - 0.0
19/11:00pm 11.6 10.9 7.1 74 2.2 CALM 0 6 0 3 1018.5 - 0.0
19/10:30pm 10.5 9.9 7.6 82 1.4 CALM 0 6 0 3 1018.7 - 0.0
19/10:00pm 9.9 9.2 7.0 82 1.4 CALM 0 0 0 0 1018.8 - 0.0
19/09:30pm 11.4 10.6 6.7 73 2.3 CALM 0 6 0 3 1018.8 - 0.0
19/09:00pm 12.5 11.4 6.8 68 2.8 ESE 2 9 1 5 1018.8 1018.2 0.0
19/08:30pm 12.9 11.5 7.1 68 2.9 ESE 4 7 2 4 1018.8 - 0.0
19/08:00pm 12.8 11.0 7.3 69 2.7 ESE 6 9 3 5 1018.8 - 0.0
19/07:30pm 13.3 11.4 6.6 64 3.3 SE 6 9 3 5 1018.8 - 0.0
19/07:00pm 13.6 12.8 6.5 62 3.5 CALM 0 6 0 3 1018.8 - 0.0
19/06:30pm 13.9 13.6 8.7 71 2.7 CALM 0 0 0 0 1018.7 - 0.0
19/06:00pm 14.6 13.8 6.4 58 4.0 CALM 0 6 0 3 1018.6 1017.9 0.0
19/05:30pm 15.1 13.4 5.9 54 4.5 SW 4 7 2 4 1018.6 - 0.0
19/05:00pm 15.2 13.0 6.0 54 4.5 SSW 7 15 4 8 1018.5 - 0.0
19/04:30pm 15.7 13.4 5.6 51 4.9 WSW 7 15 4 8 1018.6 - 0.0
19/04:00pm 16.3 13.3 5.9 50 5.1 W 11 17 6 9 1018.6 - 0.0
19/03:30pm 16.7 12.7 5.0 46 5.7 WSW 15 28 8 15 1018.6 - 0.0
19/03:00pm 17.0 13.9 7.4 53 4.9 WSW 13 19 7 10 1018.7 1018.0 0.0
19/02:30pm 16.8 13.2 6.6 51 5.1 W 15 24 8 13 1018.7 - 0.0
19/02:00pm 17.1 13.7 7.5 53 4.9 W 15 33 8 18 1018.9 - 0.0
19/01:30pm 16.2 11.7 6.3 52 4.9 WSW 19 30 10 16 1019.1 - 0.0
19/01:00pm 16.4 13.1 6.2 51 5.1 W 13 26 7 14 1019.6 - 0.0
19/12:30pm 16.2 13.3 6.3 52 4.9 WNW 11 22 6 12 1020.3 - 0.0
19/12:00pm 16.0 13.7 7.5 57 4.3 WNW 9 19 5 10 1021.0 1020.4 0.0
19/11:30am 15.1 12.6 6.7 57 4.2 N 9 20 5 11 1021.7 - 0.0
19/11:00am 14.4 11.8 6.3 58 4.0 NE 9 17 5 9 1022.0 - 0.0
19/10:30am 13.3 11.4 7.5 68 2.9 ENE 7 17 4 9 1022.3 - 0.0
19/10:00am 13.0 10.3 7.2 68 2.9 ENE 11 17 6 9 1022.7 - 0.0
19/09:30am 12.2 9.5 7.5 73 2.3 NE 11 19 6 10 1023.1 - 0.0
19/09:00am 11.3 9.0 7.6 78 1.8 NE 9 19 5 10 1023.4 1022.8 0.4
19/08:30am 10.4 7.4 7.6 83 1.4 ENE 13 19 7 10 1023.0 - 0.4
19/08:00am 9.0 7.3 7.5 90 0.7 E 6 9 3 5 1022.9 - 0.4
19/07:30am 5.1 - 5.2 - - CALM 0 0 0 0 1022.8 - 0.4
19/07:00am 3.0 1.5 2.9 99 0.0 CALM 0 0 0 0 1022.6 - 0.4
19/06:30am 3.0 1.4 2.7 98 0.1 CALM 0 0 0 0 1022.4 - 0.4
19/06:00am 3.3 1.8 2.9 97 0.2 CALM 0 0 0 0 1022.4 1021.8 0.4
19/05:30am 3.8 2.4 3.4 97 0.2 CALM 0 0 0 0 1022.3 - 0.4
19/05:00am 4.7 3.5 4.6 99 0.0 CALM 0 0 0 0 1022.2 - 0.4
19/04:30am 4.4 3.1 4.0 97 0.2 CALM 0 0 0 0 1022.1 - 0.4
19/04:00am 5.2 3.6 4.5 95 0.3 SE 2 6 1 3 1022.0 - 0.4
19/03:30am 5.4 3.1 5.0 97 0.2 ESE 6 9 3 5 1022.0 - 0.4
19/03:00am 5.0 3.8 4.4 96 0.3 CALM 0 6 0 3 1022.2 1021.6 0.4
19/02:30am 5.2 3.9 4.3 94 0.4 CALM 0 0 0 0 1022.3 - 0.4
19/02:00am 5.5 4.3 4.5 93 0.4 CALM 0 6 0 3 1022.4 - 0.4
19/01:30am 5.7 4.5 4.7 93 0.4 CALM 0 6 0 3 1022.6 - 0.4
19/01:00am 5.8 4.7 4.9 94 0.4 CALM 0 6 0 3 1022.7 - 0.4
19/12:30am 5.5 4.3 4.6 94 0.4 CALM 0 2 0 1 1022.8 - 0.4
19/12:00am 6.2 5.2 5.5 95 0.3 CALM 0 0 0 0 1022.8 1022.2 0.4
 
Date/Time
CST
Temp
°C
App
Temp
°C
Dew
Point
Rel
Hum
%
Delta-T
°C
Wind Press
QNH
hPa
Press
MSL
hPa
Rain
since 9 am
mm
Dir
 
Spd
km/h
Gust
km/h
Spd
kts
Gust
kts
18/11:30pm 6.3 5.3 5.4 94 0.4 CALM 0 0 0 0 1023.0 - 0.4
18/11:00pm 7.3 6.4 6.1 92 0.6 CALM 0 0 0 0 1023.3 - 0.4
18/10:30pm 7.7 6.8 6.2 90 0.7 CALM 0 0 0 0 1023.4 - 0.4
18/10:00pm 9.3 8.5 6.7 84 1.2 CALM 0 0 0 0 1023.6 - 0.4
18/09:30pm 10.3 8.6 7.4 82 1.4 SE 6 13 3 7 1023.5 - 0.4
18/09:00pm 10.4 9.1 7.8 84 1.3 ESE 4 11 2 6 1023.1 1022.6 0.4
18/08:30pm 11.1 9.3 8.0 81 1.5 SSE 7 13 4 7 1023.1 - 0.4
18/08:00pm 11.3 9.7 8.2 81 1.6 SSE 6 13 3 7 1023.1 - 0.4
18/07:30pm 11.5 10.4 8.4 81 1.6 SSE 4 9 2 5 1023.4 - 0.4
18/07:00pm 12.2 10.0 7.9 75 2.2 S 9 13 5 7 1023.1 - 0.4
18/06:30pm 12.6 10.6 7.1 69 2.7 S 7 11 4 6 1022.9 - 0.4
18/06:00pm 13.3 11.7 6.4 63 3.4 S 4 9 2 5 1022.5 1021.9 0.4
18/05:30pm 14.6 12.2 6.9 60 3.8 S 9 17 5 9 1022.4 - 0.4
18/05:00pm 15.6 12.1 7.1 57 4.3 S 15 22 8 12 1022.2 - 0.4
18/04:30pm 16.4 13.2 8.4 59 4.2 S 15 24 8 13 1021.9 - 0.4
18/04:00pm 16.7 13.0 8.1 57 4.5 S 17 30 9 16 1021.8 - 0.4
18/03:30pm 17.7 15.1 10.8 64 3.8 SSW 15 28 8 15 1021.6 - 0.4
18/03:00pm 17.6 13.9 10.0 61 4.1 SSW 20 32 11 17 1021.5 1020.9 0.4
18/02:30pm 17.9 14.2 10.0 60 4.3 SSW 20 35 11 19 1021.2 - 0.4
18/02:00pm 18.2 15.1 10.3 60 4.3 SW 17 33 9 18 1021.3 - 0.4
18/01:30pm 18.1 15.3 11.4 65 3.7 SSW 17 26 9 14 1021.3 - 0.4
18/01:00pm 18.2 14.9 11.0 63 4.0 SSW 19 32 10 17 1021.5 - 0.4
18/12:30pm 18.1 15.7 12.5 70 3.2 SSW 17 24 9 13 1021.9 - 0.4
18/12:00pm 17.2 14.7 12.3 73 2.7 SW 17 24 9 13 1022.3 1021.7 0.4
18/11:30am 16.7 14.5 13.2 80 2.0 S 17 26 9 14 1022.5 - 0.4
18/11:00am 16.4 15.0 13.5 83 1.7 SW 13 22 7 12 1022.6 - 0.4
18/10:30am 14.9 13.9 14.6 98 0.2 SW 13 22 7 12 1022.8 - 0.4
18/10:00am 14.2 12.9 13.7 97 0.3 WSW 13 20 7 11 1022.8 - 0.4
18/09:30am 14.3 13.1 14.0 98 0.2 WSW 13 24 7 13 1022.9 - 0.2
18/09:00am 14.2 13.3 13.7 97 0.3 W 11 22 6 12 1022.7 1022.1 0.0
18/08:30am 14.3 13.4 13.8 97 0.3 WSW 11 17 6 9 1022.5 - 0.0
18/08:00am 14.2 13.4 14.0 99 0.1 WSW 11 17 6 9 1022.2 - 0.0
18/07:30am 13.5 - 13.7 - - SSW 7 15 4 8 1021.6 - 0.0
18/07:00am 13.4 - 13.7 - - WSW 9 17 5 9 1021.6 - 0.0
18/06:30am 13.5 - 13.8 - - WSW 7 15 4 8 1021.3 - 0.0
18/06:00am 13.5 - 13.7 - - WSW 9 15 5 8 1021.2 1020.6 0.0
18/05:30am 13.5 - 13.7 - - WSW 11 19 6 10 1021.0 - 0.0
18/05:00am 13.6 - 13.8 - - SW 11 19 6 10 1020.9 - 0.0
18/04:30am 13.7 - 13.9 - - WSW 11 20 6 11 1020.7 - 0.0
18/04:00am 13.7 12.0 13.5 99 0.1 W 15 28 8 15 1020.7 - 0.0
18/03:30am 13.2 12.4 12.9 98 0.2 WSW 9 15 5 8 1020.4 - 0.0
18/03:00am 12.7 11.9 11.8 94 0.5 W 7 11 4 6 1020.2 1019.6 0.0
18/02:30am 13.1 12.2 11.5 90 0.9 WSW 7 13 4 7 1020.2 - 0.0
18/02:00am 13.0 12.0 10.9 87 1.1 W 7 11 4 6 1020.4 - 0.0
18/01:30am 12.9 11.9 10.4 85 1.3 W 6 11 3 6 1020.6 - 0.0
18/01:00am 13.5 12.9 10.3 81 1.7 WSW 4 7 2 4 1020.7 - 0.0
18/12:30am 14.1 13.0 10.7 80 1.8 W 7 11 4 6 1020.7 - 0.0
18/12:00am 10.5 10.5 9.7 95 0.4 CALM 0 6 0 3 1021.0 1020.4 0.0
 
Date/Time
CST
Temp
°C
App
Temp
°C
Dew
Point
Rel
Hum
%
Delta-T
°C
Wind Press
QNH
hPa
Press
MSL
hPa
Rain
since 9 am
mm
Dir
 
Spd
km/h
Gust
km/h
Spd
kts
Gust
kts
17/11:30pm 10.2 10.1 9.4 95 0.4 CALM 0 0 0 0 1020.9 - 0.0

Other Formats:

Comma delimited format used in spreadsheet applications
http://www.bom.gov.au/fwo/IDS60801/IDS60801.95667.axf

JavaScript Object Notation format (JSON) in row-major order
http://www.bom.gov.au/fwo/IDS60801/IDS60801.95667.json